Hovedside
METAR-TAF:

METAR-TAF

Lufthavner :

Xi'an Xianyang internasjonale lufthavn

Xi'an, Kina

breddegrad: 34-26N, lengdegrad: 108-45E, høyde over havet: 479 m

Gjeldene værobservasjon

Denne rapporten ble laget for 20 minutter siden, klokken 19:00 UTC
Vind 2 kt fra Nord-nordøst
Temperatur 4°C
Luftfuktighet 100%
Trykk 1014 hPa
Sikt: 5000 m
dis

METAR: ZLXY 151900Z 02001MPS 5000 BR NSC 04/04 Q1014 NOSIG

Tid: 03:20 (19:20 UTC)

Varsel

Denne rapporten ble laget for 3 timer og 54 minutter siden, klokken 15:26 UTC
Varsel gyldig fra 15. klokken 18 UTC til 16. klokken 18 UTC
Vind 6 kt fra Nord
Sikt: 3000 m
dis

TAF: ZLXY 151526Z 1518/1618 35003MPS 3000 HZ NSC TX18/1608Z TN03/1521Z

Værobservasjoner og værvarsel for over 4000 flyplasser (METAR- og TAF-rapporter).

Tilgjengelige stasjoner er representert av de røde og gule prikkene på kartet.

Hold musepekeren over prikken for å se navnet på stasjonen.

Klikk så for å se værobservasjoner og -varsler.

For å forandre kartet kan du klikke på den grønne knappen med svart kryss for å zoome inn, på den grønne knappen med strek for å zoome ut, eller på de grønne pilene for å se tilstøtende kart.


METAR-TAF: